Time;durP1;ratioP1;P1;durP2;ratioP2;P2;SDS_P1;SDS_P2;PMS_P1;PMS_P2;Temp;Humidity;BMP_temperature;BMP_pressure;BME280_temperature;BME280_humidity;BME280_pressure;Samples;Min_cycle;Max_cycle;Signal;HPM_P1;HPM_P2
2020/12/06 00:00:17;;;;;;;1.97;1.87;;;;;;;2.27;100.00;97487.47;3880965;75;396032;-77
2020/12/06 00:05:22;;;;;;;5.40;3.90;;;;;;;2.28;100.00;97486.31;3881048;75;390865;-77
2020/12/06 00:10:27;;;;;;;4.93;3.93;;;;;;;2.24;100.00;97480.68;3880659;75;394985;-78
2020/12/06 00:15:32;;;;;;;7.40;3.43;;;;;;;2.11;100.00;97447.71;3891838;75;391825;-78
2020/12/06 00:20:38;;;;;;;5.13;4.73;;;;;;;2.25;100.00;97446.38;3877076;75;396162;-77
2020/12/06 00:25:43;;;;;;;2.63;2.33;;;;;;;2.31;100.00;97450.85;3868412;75;396056;-77
2020/12/06 00:30:48;;;;;;;2.57;1.47;;;;;;;2.24;100.00;97441.34;3868740;75;396078;-77
2020/12/06 00:35:53;;;;;;;5.60;2.60;;;;;;;2.27;100.00;97427.00;3869220;75;396065;-78
2020/12/06 00:40:58;;;;;;;4.10;2.20;;;;;;;2.31;100.00;97427.20;3870110;75;394019;-78
2020/12/06 00:46:04;;;;;;;2.90;2.80;;;;;;;2.26;100.00;97443.10;3870191;75;396090;-77
2020/12/06 00:51:11;;;;;;;2.70;2.50;;;;;;;2.26;100.00;97427.59;3869059;75;396063;-77
2020/12/06 00:56:23;;;;;;;2.00;1.90;;;;;;;2.27;100.00;97442.71;3869614;75;389811;-77
2020/12/06 01:01:28;;;;;;;3.20;3.00;;;;;;;2.22;100.00;97439.00;3869256;75;396129;-78
2020/12/06 01:06:33;;;;;;;2.00;1.90;;;;;;;2.26;100.00;97440.39;3869744;75;393249;-77
2020/12/06 01:11:38;;;;;;;15.07;2.50;;;;;;;2.31;100.00;97438.64;3869268;75;396382;-77
2020/12/06 01:16:43;;;;;;;2.17;2.00;;;;;;;2.54;100.00;97429.00;3869788;75;396065;-77
2020/12/06 01:21:53;;;;;;;6.67;2.13;;;;;;;2.44;100.00;97424.33;3874360;75;393939;-77
2020/12/06 01:26:58;;;;;;;1.87;1.77;;;;;;;2.47;100.00;97442.53;3862270;75;396106;-77
2020/12/06 01:32:03;;;;;;;7.17;2.77;;;;;;;2.44;100.00;97460.37;3881527;75;395980;-77
2020/12/06 01:37:08;;;;;;;4.80;2.10;;;;;;;2.52;100.00;97453.02;3881611;75;396342;-78
2020/12/06 01:42:13;;;;;;;7.10;3.80;;;;;;;2.54;100.00;97445.28;3892791;75;396018;-78
2020/12/06 01:47:20;;;;;;;4.10;3.77;;;;;;;2.52;100.00;97413.09;3881072;75;396071;-78
2020/12/06 01:52:29;;;;;;;8.70;3.20;;;;;;;2.61;100.00;97410.00;3892882;75;395995;-77
2020/12/06 01:57:34;;;;;;;4.07;1.80;;;;;;;2.64;100.00;97408.64;3743464;78;395999;-78
2020/12/06 02:02:39;;;;;;;1.37;1.27;;;;;;;2.72;100.00;97394.47;3881986;75;391869;-78
2020/12/06 02:07:46;;;;;;;9.63;3.33;;;;;;;2.66;100.00;97372.95;3893618;75;395980;-78
2020/12/06 02:12:53;;;;;;;3.83;3.63;;;;;;;2.56;100.00;97371.81;3881010;75;396032;-78
2020/12/06 02:17:59;;;;;;;1.60;1.50;;;;;;;2.54;100.00;97365.98;3882771;75;396099;-78
2020/12/06 02:23:06;;;;;;;1.93;1.60;;;;;;;2.54;100.00;97374.13;3881934;75;391818;-77
2020/12/06 02:28:11;;;;;;;2.50;2.30;;;;;;;2.74;100.00;97369.87;3893090;75;394969;-77
2020/12/06 02:33:16;;;;;;;2.13;2.00;;;;;;;2.87;100.00;97368.29;3882759;73;394945;-77
2020/12/06 02:38:21;;;;;;;5.27;3.77;;;;;;;2.81;100.00;97350.85;3882608;73;394964;-78
2020/12/06 02:43:26;;;;;;;3.27;2.97;;;;;;;2.73;100.00;97355.30;3882063;73;396047;-78
2020/12/06 02:48:31;;;;;;;4.77;4.37;;;;;;;2.78;100.00;97351.63;3881124;75;396023;-78
2020/12/06 02:53:36;;;;;;;6.73;4.20;;;;;;;3.02;100.00;97349.44;3881515;75;396084;-78
2020/12/06 02:58:42;;;;;;;3.67;2.80;;;;;;;3.05;100.00;97343.23;3880951;75;393966;-78
2020/12/06 03:03:47;;;;;;;1.87;1.77;;;;;;;2.80;100.00;97335.72;3892170;75;391856;-77
2020/12/06 03:08:52;;;;;;;26.37;3.80;;;;;;;2.99;100.00;97357.59;3881981;75;396073;-78
2020/12/06 03:13:58;;;;;;;2.33;1.60;;;;;;;2.87;100.00;97353.95;3883130;75;391804;-78
2020/12/06 03:19:03;;;;;;;2.83;2.50;;;;;;;2.74;100.00;97347.36;3893670;75;396023;-78
2020/12/06 03:24:08;;;;;;;7.10;3.07;;;;;;;2.67;100.00;97342.70;3861036;75;396003;-78
2020/12/06 03:29:13;;;;;;;4.37;2.60;;;;;;;2.63;100.00;97361.52;3847358;73;395997;-78
2020/12/06 03:34:18;;;;;;;1.30;1.07;;;;;;;2.92;100.00;97355.66;3846708;73;395964;-79
2020/12/06 03:39:23;;;;;;;5.10;3.53;;;;;;;2.94;100.00;97339.77;3841786;73;395995;-78
2020/12/06 03:44:28;;;;;;;5.03;2.80;;;;;;;2.65;100.00;97334.77;3838092;74;396137;-79
2020/12/06 03:49:33;;;;;;;2.57;2.37;;;;;;;2.82;100.00;97337.47;3837469;73;396081;-78
2020/12/06 03:54:38;;;;;;;2.80;2.50;;;;;;;2.68;100.00;97319.07;3826929;76;396060;-78
2020/12/06 03:59:43;;;;;;;7.73;2.27;;;;;;;2.57;100.00;97327.80;3803461;75;395359;-78
2020/12/06 04:04:48;;;;;;;2.53;2.00;;;;;;;2.57;100.00;97330.51;3761483;76;396115;-78
2020/12/06 04:09:54;;;;;;;4.30;2.33;;;;;;;2.38;100.00;97326.27;3762188;78;396042;-78
2020/12/06 04:14:59;;;;;;;1.97;1.87;;;;;;;2.39;100.00;97340.59;3761329;77;396072;-78
2020/12/06 04:20:06;;;;;;;3.90;1.70;;;;;;;2.43;100.00;97343.50;3761701;77;391882;-78
2020/12/06 04:25:11;;;;;;;3.27;1.53;;;;;;;2.44;100.00;97351.07;3785537;76;396019;-78
2020/12/06 04:30:16;;;;;;;3.27;1.37;;;;;;;2.70;100.00;97347.96;3799414;77;393922;-78
2020/12/06 04:35:22;;;;;;;6.03;3.33;;;;;;;2.45;100.00;97341.77;3802468;76;393952;-77
2020/12/06 04:40:27;;;;;;;2.50;1.53;;;;;;;2.33;100.00;97338.08;3798908;77;396333;-77
2020/12/06 04:45:33;;;;;;;2.60;1.70;;;;;;;2.34;100.00;97337.52;3797546;77;396094;-77
2020/12/06 04:50:40;;;;;;;3.23;2.50;;;;;;;2.43;100.00;97339.42;3797491;77;396120;-77
2020/12/06 04:55:49;;;;;;;2.57;1.87;;;;;;;2.48;100.00;97318.70;3797481;77;396049;-79
2020/12/06 05:00:54;;;;;;;2.30;1.17;;;;;;;2.43;100.00;97308.81;3800657;76;393969;-78
2020/12/06 05:05:59;;;;;;;3.70;2.30;;;;;;;2.33;100.00;97288.48;3803307;76;396119;-78
2020/12/06 05:11:05;;;;;;;2.37;1.40;;;;;;;2.35;100.00;97286.92;3804029;76;393979;-78
2020/12/06 05:16:11;;;;;;;7.50;3.80;;;;;;;2.57;100.00;97312.87;3804502;76;396060;-78
2020/12/06 05:21:17;;;;;;;2.50;2.30;;;;;;;2.57;100.00;97303.37;3803409;76;396324;-78
2020/12/06 05:26:22;;;;;;;4.70;3.40;;;;;;;2.47;100.00;97314.44;3875143;75;396431;-78
2020/12/06 05:31:28;;;;;;;2.50;1.47;;;;;;;2.35;100.00;97294.47;3889623;75;391924;-78
2020/12/06 05:36:33;;;;;;;3.13;2.17;;;;;;;2.28;100.00;97265.80;3879241;75;383512;-78
2020/12/06 05:41:38;;;;;;;2.80;1.47;;;;;;;2.28;100.00;97287.50;3878506;75;396069;-78
2020/12/06 05:46:43;;;;;;;13.63;3.23;;;;;;;2.27;100.00;97305.72;3878355;75;394201;-78
2020/12/06 05:51:55;;;;;;;3.40;3.10;;;;;;;2.16;100.00;97304.17;3878873;75;396360;-78
2020/12/06 05:57:01;;;;;;;3.60;3.10;;;;;;;2.14;100.00;97309.20;3879130;75;396098;-78
2020/12/06 06:02:08;;;;;;;2.47;2.27;;;;;;;1.94;100.00;97309.41;3880221;75;383529;-77
2020/12/06 06:07:21;;;;;;;6.00;2.40;;;;;;;1.92;100.00;97308.41;3879046;75;396049;-77
2020/12/06 06:12:30;;;;;;;5.40;4.90;;;;;;;1.82;100.00;97299.67;3878865;75;396040;-77
2020/12/06 06:17:35;;;;;;;4.00;3.00;;;;;;;1.74;100.00;97309.55;3879504;75;392918;-77
2020/12/06 06:22:43;;;;;;;1.50;1.40;;;;;;;1.88;100.00;97302.78;3878931;75;394004;-77
2020/12/06 06:27:50;;;;;;;7.83;2.40;;;;;;;1.75;100.00;97295.60;3824284;75;396067;-77
2020/12/06 06:32:56;;;;;;;3.97;1.90;;;;;;;1.77;100.00;97292.53;3824993;75;387687;-77
2020/12/06 06:38:02;;;;;;;2.20;2.00;;;;;;;1.64;100.00;97309.73;3823146;76;396115;-77
2020/12/06 06:43:07;;;;;;;4.63;2.23;;;;;;;1.57;100.00;97312.98;3823877;75;396131;-77
2020/12/06 06:48:18;;;;;;;2.53;2.30;;;;;;;1.62;100.00;97320.73;3825990;75;396023;-76
2020/12/06 06:53:25;;;;;;;1.73;1.60;;;;;;;1.55;100.00;97323.42;3824777;76;392903;-77
2020/12/06 06:58:34;;;;;;;4.17;3.77;;;;;;;1.63;100.00;97330.42;3817735;75;396065;-78
2020/12/06 07:03:53;;;;;;;1.57;1.30;;;;;;;1.72;100.00;97315.36;3759595;76;393938;-77
2020/12/06 07:08:59;;;;;;;10.63;5.17;;;;;;;1.64;100.00;97330.05;3759663;77;388741;-76
2020/12/06 07:14:05;;;;;;;15.60;3.87;;;;;;;1.54;100.00;97330.59;3760668;77;396061;-77
2020/12/06 07:19:10;;;;;;;4.80;2.00;;;;;;;1.58;100.00;97340.28;3759298;76;396152;-76
2020/12/06 07:24:16;;;;;;;3.43;2.67;;;;;;;1.67;100.00;97375.34;3770566;75;396270;-76
2020/12/06 07:29:21;;;;;;;8.40;6.70;;;;;;;1.65;100.00;97381.73;3844582;76;396062;-77
2020/12/06 07:34:26;;;;;;;7.10;3.57;;;;;;;1.83;100.00;97381.19;3801823;76;394027;-78
2020/12/06 07:39:32;;;;;;;1.60;1.50;;;;;;;1.97;100.00;97388.03;3797364;77;396322;-74
2020/12/06 07:44:48;;;;;;;12.07;4.63;;;;;;;2.03;100.00;97382.98;3817723;75;391893;-75
2020/12/06 07:50:00;;;;;;;4.20;2.53;;;;;;;1.94;100.00;97374.47;3898253;74;396371;-75
2020/12/06 07:55:08;;;;;;;2.57;1.80;;;;;;;1.76;100.00;97362.20;3898363;74;396038;-75
2020/12/06 08:00:19;;;;;;;1.80;1.20;;;;;;;1.87;100.00;97375.78;3898665;74;395064;-75
2020/12/06 08:05:26;;;;;;;2.37;2.17;;;;;;;1.92;100.00;97360.51;3897456;75;396101;-74
2020/12/06 08:10:33;;;;;;;37.80;14.93;;;;;;;2.00;100.00;97366.14;3898138;75;404395;-75
2020/12/06 08:15:39;;;;;;;7.50;5.67;;;;;;;2.09;100.00;97356.47;3900047;74;381784;-76
2020/12/06 08:20:57;;;;;;;2.70;2.50;;;;;;;2.01;100.00;97345.41;3898534;75;396023;-76
2020/12/06 08:26:02;;;;;;;5.43;3.80;;;;;;;2.13;100.00;97340.20;3877153;74;396086;-76
2020/12/06 08:31:24;;;;;;;4.07;3.10;;;;;;;2.13;100.00;97346.98;3873726;75;396054;-77
2020/12/06 08:36:29;;;;;;;4.33;3.90;;;;;;;2.37;100.00;97335.56;3870632;75;396302;-77
2020/12/06 08:41:34;;;;;;;12.77;3.50;;;;;;;2.48;100.00;97337.70;3870586;75;395983;-77
2020/12/06 08:46:50;;;;;;;2.50;2.30;;;;;;;2.49;100.00;97334.39;3869744;75;395313;-77
2020/12/06 08:51:56;;;;;;;2.43;2.33;;;;;;;2.44;100.00;97337.50;3858834;75;396107;-76
2020/12/06 08:57:10;;;;;;;3.43;3.23;;;;;;;2.64;100.00;97339.44;3875713;75;396054;-77
2020/12/06 09:02:24;;;;;;;6.93;4.57;;;;;;;2.72;100.00;97381.69;3861600;76;396077;-76
2020/12/06 09:07:29;;;;;;;2.60;2.40;;;;;;;2.72;100.00;97384.41;3862867;75;396020;-76
2020/12/06 09:12:36;;;;;;;13.53;3.37;;;;;;;2.59;100.00;97344.47;3877209;75;391147;-77
2020/12/06 09:17:41;;;;;;;20.10;3.77;;;;;;;2.60;100.00;97360.95;3862356;75;396102;-77
2020/12/06 09:22:46;;;;;;;5.53;5.03;;;;;;;2.65;100.00;97353.20;3877829;74;395959;-78
2020/12/06 09:27:51;;;;;;;6.30;4.27;;;;;;;2.72;100.00;97355.91;3878246;74;393971;-77
2020/12/06 09:32:58;;;;;;;2.77;2.20;;;;;;;2.80;100.00;97366.16;3876339;74;394020;-77
2020/12/06 09:38:03;;;;;;;4.77;3.23;;;;;;;2.92;100.00;97364.41;3876000;75;396083;-77
2020/12/06 09:43:09;;;;;;;3.67;2.43;;;;;;;3.17;100.00;97356.38;3876179;75;396403;-77
2020/12/06 09:48:15;;;;;;;1.57;1.47;;;;;;;3.18;100.00;97356.58;3875817;75;396095;-77
2020/12/06 09:53:21;;;;;;;9.93;3.60;;;;;;;3.21;100.00;97378.90;3876485;74;394006;-77
2020/12/06 09:58:26;;;;;;;2.90;2.70;;;;;;;3.20;100.00;97381.42;3875947;75;396015;-77
2020/12/06 10:03:31;;;;;;;6.93;3.90;;;;;;;3.29;100.00;97377.11;3876131;75;396533;-77
2020/12/06 10:08:41;;;;;;;4.27;3.27;;;;;;;3.31;100.00;97363.16;3876035;75;396011;-77
2020/12/06 10:13:46;;;;;;;7.03;3.23;;;;;;;3.29;100.00;97354.02;3875876;74;396035;-77
2020/12/06 10:18:54;;;;;;;4.33;3.03;;;;;;;3.40;100.00;97340.39;3875435;75;396097;-77
2020/12/06 10:23:58;;;;;;;24.03;8.07;;;;;;;3.43;100.00;97362.11;3875457;75;400231;-77
2020/12/06 10:29:04;;;;;;;2.37;2.27;;;;;;;3.48;100.00;97345.98;3876088;75;391881;-78
2020/12/06 10:34:09;;;;;;;3.57;2.23;;;;;;;3.50;100.00;97330.06;3868955;75;395960;-78
2020/12/06 10:39:15;;;;;;;4.40;3.97;;;;;;;3.56;100.00;97332.55;3871000;73;396077;-78
2020/12/06 10:44:23;;;;;;;8.90;3.83;;;;;;;3.65;100.00;97350.57;3870678;73;396047;-78
2020/12/06 10:49:28;;;;;;;7.03;3.60;;;;;;;3.76;100.00;97351.30;3870292;75;396069;-77
2020/12/06 10:54:33;;;;;;;5.53;4.10;;;;;;;3.81;100.00;97345.44;3870492;74;396004;-77
2020/12/06 10:59:39;;;;;;;5.37;3.47;;;;;;;3.83;100.00;97339.03;3860443;75;396005;-77
2020/12/06 11:04:44;;;;;;;4.63;3.60;;;;;;;3.88;100.00;97339.98;3841463;75;396032;-78
2020/12/06 11:09:49;;;;;;;5.73;3.73;;;;;;;3.91;100.00;97341.33;3841586;74;396003;-77
2020/12/06 11:14:54;;;;;;;6.30;5.70;;;;;;;3.95;100.00;97331.97;3840958;75;397048;-77
2020/12/06 11:20:00;;;;;;;4.40;2.00;;;;;;;3.98;100.00;97350.20;3840094;76;396054;-77
2020/12/06 11:25:05;;;;;;;4.77;3.33;;;;;;;3.97;100.00;97357.41;3839380;75;396031;-77
2020/12/06 11:30:10;;;;;;;9.23;3.90;;;;;;;4.06;100.00;97354.42;3818646;75;396322;-77
2020/12/06 11:35:15;;;;;;;13.47;4.40;;;;;;;4.02;100.00;97348.25;3799458;76;396066;-77
2020/12/06 11:40:23;;;;;;;3.50;3.30;;;;;;;4.01;100.00;97333.09;3818969;76;396036;-77
2020/12/06 11:45:28;;;;;;;3.77;3.47;;;;;;;3.97;100.00;97343.21;3820636;76;395985;-77
2020/12/06 11:50:34;;;;;;;2.30;2.10;;;;;;;3.95;100.00;97350.22;3799860;76;392903;-77
2020/12/06 11:55:39;;;;;;;16.40;4.70;;;;;;;4.01;100.00;97343.19;3772066;73;397011;-77
2020/12/06 12:00:44;;;;;;;9.63;4.23;;;;;;;4.08;100.00;97348.58;3838826;73;396070;-78
2020/12/06 12:05:49;;;;;;;5.50;4.27;;;;;;;4.08;100.00;97355.38;3903576;73;396000;-78
2020/12/06 12:10:55;;;;;;;7.17;4.00;;;;;;;4.03;100.00;97364.77;3904413;73;396012;-78
2020/12/06 12:16:00;;;;;;;10.37;6.40;;;;;;;4.01;100.00;97349.42;3904520;73;386612;-77
2020/12/06 12:21:05;;;;;;;6.27;5.87;;;;;;;3.94;100.00;97337.80;3903197;73;396069;-78
2020/12/06 12:26:10;;;;;;;10.57;4.70;;;;;;;4.04;100.00;97332.28;3902754;74;395984;-77
2020/12/06 12:31:15;;;;;;;8.43;4.67;;;;;;;3.97;100.00;97345.92;3864958;74;396023;-77
2020/12/06 12:36:20;;;;;;;4.83;3.73;;;;;;;3.93;100.00;97355.87;3835452;76;386661;-78
2020/12/06 12:41:32;;;;;;;9.53;6.13;;;;;;;4.03;100.00;97357.96;3836344;76;392957;-77
2020/12/06 12:46:34;;;;;;;25.00;5.87;;;;;;;4.03;100.00;97352.52;3823250;75;396032;-77
2020/12/06 12:51:39;;;;;;;6.97;5.03;;;;;;;3.94;100.00;97349.46;3824786;75;396103;-78
2020/12/06 12:56:44;;;;;;;16.70;5.70;;;;;;;3.85;100.00;97336.09;3839016;76;398182;-77
2020/12/06 13:01:50;;;;;;;7.17;3.53;;;;;;;3.86;100.00;97347.16;3825604;76;392906;-77
2020/12/06 13:06:55;;;;;;;7.73;5.37;;;;;;;3.79;100.00;97334.20;3825947;76;396262;-77
2020/12/06 13:12:00;;;;;;;12.77;4.50;;;;;;;3.95;100.00;97338.77;3838023;76;395998;-78
2020/12/06 13:17:05;;;;;;;5.00;4.53;;;;;;;3.93;100.00;97346.55;3822883;76;396110;-77
2020/12/06 13:22:11;;;;;;;8.17;2.97;;;;;;;4.09;100.00;97338.68;3833287;76;396059;-77
2020/12/06 13:27:16;;;;;;;6.47;3.47;;;;;;;4.04;100.00;97336.36;3838345;74;396071;-77
2020/12/06 13:32:22;;;;;;;7.70;3.90;;;;;;;3.99;100.00;97335.44;3880084;75;393982;-77
2020/12/06 13:37:27;;;;;;;19.00;5.80;;;;;;;3.93;100.00;97345.00;3879007;75;396103;-77
2020/12/06 13:42:32;;;;;;;24.07;4.23;;;;;;;3.97;100.00;97356.81;3879620;75;400205;-78
2020/12/06 13:47:37;;;;;;;6.00;3.47;;;;;;;3.95;100.00;97353.73;3879567;75;393987;-77
2020/12/06 13:52:42;;;;;;;7.60;5.63;;;;;;;3.96;100.00;97351.17;3880825;75;391849;-77
2020/12/06 13:57:48;;;;;;;12.73;5.70;;;;;;;3.94;100.00;97348.11;3880664;75;390014;-77
2020/12/06 14:02:53;;;;;;;6.40;3.37;;;;;;;3.92;100.00;97352.97;3809837;76;389786;-77
2020/12/06 14:07:58;;;;;;;3.53;3.23;;;;;;;3.95;100.00;97344.78;3811356;77;396058;-78
2020/12/06 14:13:03;;;;;;;5.97;3.97;;;;;;;3.95;100.00;97350.22;3811975;76;396079;-78
2020/12/06 14:18:08;;;;;;;15.40;7.30;;;;;;;3.79;100.00;97349.92;3811851;77;389778;-78
2020/12/06 14:23:13;;;;;;;7.03;4.30;;;;;;;3.81;100.00;97347.59;3812547;77;395989;-78
2020/12/06 14:28:18;;;;;;;5.17;3.07;;;;;;;3.98;100.00;97348.08;3822421;76;396032;-78
2020/12/06 14:33:23;;;;;;;13.03;3.77;;;;;;;3.87;100.00;97360.20;3813421;76;396110;-78
2020/12/06 14:38:28;;;;;;;17.33;6.40;;;;;;;4.03;100.00;97347.08;3811165;77;396295;-78
2020/12/06 14:43:33;;;;;;;9.50;6.43;;;;;;;4.03;100.00;97336.20;3812641;76;391898;-78
2020/12/06 14:48:39;;;;;;;13.30;5.87;;;;;;;3.92;100.00;97336.64;3812923;76;400147;-77
2020/12/06 14:53:44;;;;;;;7.23;5.20;;;;;;;3.91;100.00;97341.89;3824804;75;396024;-78
2020/12/06 14:58:49;;;;;;;5.30;3.80;;;;;;;3.93;100.00;97338.96;3812841;76;391822;-78
2020/12/06 15:03:55;;;;;;;6.10;3.30;;;;;;;3.90;100.00;97352.58;3786801;76;396088;-78
2020/12/06 15:09:00;;;;;;;20.43;8.00;;;;;;;3.69;100.00;97362.98;3822837;76;396062;-78
2020/12/06 15:14:05;;;;;;;4.43;3.77;;;;;;;3.69;100.00;97384.73;3812700;76;396061;-78
2020/12/06 15:19:10;;;;;;;8.63;5.00;;;;;;;3.70;100.00;97405.92;3813522;76;393894;-77
2020/12/06 15:24:15;;;;;;;13.00;5.57;;;;;;;3.69;100.00;97424.75;3812831;76;400151;-78
2020/12/06 15:29:21;;;;;;;19.70;4.80;;;;;;;3.66;100.00;97426.89;3824224;75;393908;-78
2020/12/06 15:34:26;;;;;;;4.73;4.10;;;;;;;3.62;100.00;97424.78;3856280;76;396074;-78
2020/12/06 15:39:31;;;;;;;15.20;5.60;;;;;;;3.62;100.00;97419.34;3856531;75;396050;-78
2020/12/06 15:44:36;;;;;;;12.77;5.87;;;;;;;3.62;100.00;97414.67;3853915;75;400155;-77
2020/12/06 15:49:41;;;;;;;5.40;4.17;;;;;;;3.62;100.00;97413.91;3854212;75;396036;-78
2020/12/06 15:54:46;;;;;;;34.50;8.70;;;;;;;3.54;100.00;97396.08;3854528;75;400212;-77
2020/12/06 15:59:52;;;;;;;8.63;5.60;;;;;;;3.51;100.00;97381.33;3882705;73;396064;-78
2020/12/06 16:04:57;;;;;;;6.37;4.47;;;;;;;3.53;100.00;97383.64;3925239;73;396036;-78
2020/12/06 16:10:02;;;;;;;10.27;4.17;;;;;;;3.83;100.00;97375.17;3925122;74;395966;-77
2020/12/06 16:15:07;;;;;;;5.30;4.80;;;;;;;3.58;100.00;97377.22;3924992;74;389827;-77
2020/12/06 16:20:12;;;;;;;3.17;2.13;;;;;;;3.52;100.00;97367.14;3924849;74;396276;-77
2020/12/06 16:25:18;;;;;;;5.37;4.83;;;;;;;3.53;100.00;97353.75;3924780;74;396062;-78
2020/12/06 16:30:23;;;;;;;26.10;5.80;;;;;;;3.54;100.00;97348.51;3911379;74;398106;-78
2020/12/06 16:35:28;;;;;;;1.93;1.63;;;;;;;3.54;100.00;97345.19;3870064;75;395988;-77
2020/12/06 16:40:35;;;;;;;6.63;4.30;;;;;;;3.62;100.00;97358.94;3869987;75;396026;-77
2020/12/06 16:45:40;;;;;;;10.20;6.33;;;;;;;3.55;100.00;97358.21;3871014;75;393943;-77
2020/12/06 16:50:45;;;;;;;6.60;4.30;;;;;;;3.53;100.00;97352.39;3870269;75;396095;-77
2020/12/06 16:55:50;;;;;;;7.60;5.40;;;;;;;3.54;100.00;97358.02;3870633;75;396018;-77
2020/12/06 17:00:56;;;;;;;6.17;3.47;;;;;;;3.50;100.00;97362.68;3870807;75;392895;-77
2020/12/06 17:06:01;;;;;;;4.70;4.33;;;;;;;3.46;100.00;97355.14;3870020;75;396359;-77
2020/12/06 17:11:07;;;;;;;8.20;5.03;;;;;;;3.45;100.00;97349.52;3868455;75;396026;-78
2020/12/06 17:16:12;;;;;;;6.87;5.87;;;;;;;3.42;100.00;97342.13;3870525;75;396051;-77
2020/12/06 17:21:21;;;;;;;14.53;6.03;;;;;;;3.40;100.00;97358.84;3870567;74;400200;-78
2020/12/06 17:26:26;;;;;;;5.97;4.27;;;;;;;3.38;100.00;97354.98;3870513;75;396039;-78
2020/12/06 17:31:33;;;;;;;9.30;4.50;;;;;;;3.39;100.00;97356.53;3891839;74;395986;-78
2020/12/06 17:36:38;;;;;;;14.57;6.23;;;;;;;3.39;100.00;97357.89;3907693;74;400188;-78
2020/12/06 17:41:43;;;;;;;13.90;4.53;;;;;;;3.40;100.00;97360.20;3907849;74;386660;-78
2020/12/06 17:46:51;;;;;;;13.23;3.90;;;;;;;3.35;100.00;97356.52;3907689;74;396026;-78
2020/12/06 17:51:57;;;;;;;9.17;3.20;;;;;;;3.32;100.00;97354.60;3908625;74;393999;-77
2020/12/06 17:57:02;;;;;;;10.10;6.80;;;;;;;3.34;100.00;97354.20;3908235;74;396021;-78
2020/12/06 18:02:08;;;;;;;6.50;5.87;;;;;;;3.32;100.00;97349.17;3915350;74;396113;-78
2020/12/06 18:07:15;;;;;;;9.23;8.20;;;;;;;3.41;100.00;97340.02;3906169;74;391855;-78
2020/12/06 18:12:21;;;;;;;6.73;5.57;;;;;;;3.52;100.00;97354.91;3907548;74;396275;-77
2020/12/06 18:17:28;;;;;;;12.40;9.30;;;;;;;3.57;100.00;97351.77;3904659;74;396007;-77
2020/12/06 18:22:33;;;;;;;9.70;5.63;;;;;;;3.63;100.00;97344.78;3906192;74;396092;-76
2020/12/06 18:27:38;;;;;;;13.47;4.63;;;;;;;3.68;100.00;97345.72;3905848;74;396057;-77
2020/12/06 18:32:43;;;;;;;11.13;4.47;;;;;;;3.87;100.00;97335.12;3906745;74;393938;-78
2020/12/06 18:37:48;;;;;;;14.13;6.63;;;;;;;3.81;100.00;97320.97;3905254;74;389773;-77
2020/12/06 18:42:53;;;;;;;9.03;5.17;;;;;;;3.60;100.00;97311.58;3901625;74;396116;-78
2020/12/06 18:47:59;;;;;;;9.50;5.83;;;;;;;3.55;100.00;97304.61;3902088;74;394231;-77
2020/12/06 18:53:04;;;;;;;16.00;6.67;;;;;;;3.52;100.00;97316.27;3910793;74;393958;-78
2020/12/06 18:58:09;;;;;;;11.97;4.17;;;;;;;3.48;100.00;97297.86;3904186;74;396013;-76
2020/12/06 19:03:16;;;;;;;9.60;7.60;;;;;;;3.64;100.00;97293.28;3804317;76;390764;-78
2020/12/06 19:08:23;;;;;;;15.07;5.77;;;;;;;3.47;100.00;97274.56;3803266;77;393945;-78
2020/12/06 19:13:28;;;;;;;3.43;3.13;;;;;;;3.44;100.00;97283.49;3801702;77;396053;-78
2020/12/06 19:18:33;;;;;;;5.47;4.97;;;;;;;3.54;100.00;97273.16;3803170;77;396061;-77
2020/12/06 19:23:39;;;;;;;8.33;5.17;;;;;;;3.47;100.00;97260.20;3803519;77;391865;-77
2020/12/06 19:28:44;;;;;;;8.07;5.47;;;;;;;3.47;100.00;97256.13;3803897;77;396024;-76
2020/12/06 19:33:49;;;;;;;10.97;4.20;;;;;;;3.55;100.00;97260.36;3768450;77;396355;-77
2020/12/06 19:38:55;;;;;;;2.27;2.07;;;;;;;3.60;100.00;97271.56;3768664;77;396010;-76
2020/12/06 19:44:00;;;;;;;6.33;3.80;;;;;;;3.61;100.00;97285.34;3762379;77;396065;-78
2020/12/06 19:49:06;;;;;;;4.00;3.27;;;;;;;3.49;100.00;97274.16;3772921;74;396015;-77
2020/12/06 19:54:11;;;;;;;28.83;3.70;;;;;;;3.47;100.00;97275.16;3881119;72;394017;-76
2020/12/06 19:59:17;;;;;;;1.93;1.40;;;;;;;3.50;100.00;97273.78;3903911;73;393983;-77
2020/12/06 20:04:22;;;;;;;4.20;3.90;;;;;;;3.37;100.00;97255.00;3861595;75;396026;-77
2020/12/06 20:09:27;;;;;;;3.67;3.00;;;;;;;3.38;100.00;97250.36;3811926;74;396071;-78
2020/12/06 20:14:33;;;;;;;7.43;2.53;;;;;;;3.37;100.00;97254.23;3826163;75;393937;-77
2020/12/06 20:19:38;;;;;;;7.40;4.77;;;;;;;3.20;100.00;97250.42;3800868;76;396084;-78
2020/12/06 20:24:44;;;;;;;2.40;2.20;;;;;;;3.20;100.00;97242.27;3824566;76;396068;-76
2020/12/06 20:29:51;;;;;;;7.87;2.77;;;;;;;3.26;100.00;97252.15;3825741;75;396055;-77
2020/12/06 20:34:56;;;;;;;3.40;2.33;;;;;;;3.31;100.00;97234.09;3831007;73;396353;-76
2020/12/06 20:40:02;;;;;;;5.33;4.17;;;;;;;3.20;100.00;97238.20;3867586;74;395971;-78
2020/12/06 20:45:07;;;;;;;4.20;3.77;;;;;;;3.43;100.00;97241.78;3867540;73;396084;-78
2020/12/06 20:50:12;;;;;;;5.40;2.80;;;;;;;3.44;100.00;97243.33;3866937;75;394209;-77
2020/12/06 20:55:18;;;;;;;2.97;2.77;;;;;;;3.45;100.00;97225.86;3866664;75;396070;-77
2020/12/06 21:00:23;;;;;;;9.33;4.27;;;;;;;3.27;100.00;97209.63;3900498;72;396291;-78
2020/12/06 21:05:28;;;;;;;8.63;2.43;;;;;;;3.25;100.00;97203.05;3907748;74;396410;-76
2020/12/06 21:10:35;;;;;;;8.07;3.57;;;;;;;3.43;100.00;97203.73;3908168;74;396119;-77
2020/12/06 21:15:40;;;;;;;17.50;10.73;;;;;;;3.36;100.00;97193.67;3907504;74;400267;-78
2020/12/06 21:20:45;;;;;;;2.40;1.80;;;;;;;3.32;100.00;97201.65;3905899;74;396079;-78
2020/12/06 21:25:51;;;;;;;3.90;3.30;;;;;;;3.41;100.00;97190.55;3902391;74;396057;-78
2020/12/06 21:30:56;;;;;;;6.97;5.70;;;;;;;3.24;100.00;97209.66;3903518;74;396064;-78
2020/12/06 21:36:04;;;;;;;5.13;3.33;;;;;;;3.22;100.00;97207.34;3901603;74;396309;-78
2020/12/06 21:41:10;;;;;;;7.07;4.07;;;;;;;3.16;100.00;97195.92;3904410;75;394017;-78
2020/12/06 21:46:15;;;;;;;8.23;6.10;;;;;;;3.23;100.00;97201.34;3904945;74;396265;-78
2020/12/06 21:51:22;;;;;;;8.10;2.70;;;;;;;3.14;100.00;97206.43;3906136;75;396080;-78
2020/12/06 21:56:28;;;;;;;4.70;2.47;;;;;;;3.16;100.00;97220.37;3904306;74;396128;-78
2020/12/06 22:01:34;;;;;;;42.57;4.83;;;;;;;3.07;100.00;97211.87;3892186;74;394150;-77
2020/12/06 22:06:39;;;;;;;3.73;3.10;;;;;;;3.07;100.00;97216.55;3887893;75;396093;-77
2020/12/06 22:11:45;;;;;;;3.80;3.47;;;;;;;2.96;100.00;97207.09;3801522;76;396062;-77
2020/12/06 22:16:50;;;;;;;7.83;3.23;;;;;;;2.97;100.00;97196.98;3877125;75;396297;-78
2020/12/06 22:21:55;;;;;;;8.00;3.47;;;;;;;2.89;100.00;97192.76;3888183;75;392905;-78
2020/12/06 22:27:01;;;;;;;6.70;2.67;;;;;;;2.88;100.00;97186.56;3876561;75;394062;-78
2020/12/06 22:32:06;;;;;;;2.70;2.50;;;;;;;2.79;100.00;97178.07;3887764;75;396066;-78
2020/12/06 22:37:11;;;;;;;3.17;2.90;;;;;;;2.84;100.00;97172.81;3875245;75;396054;-77
2020/12/06 22:42:16;;;;;;;5.57;2.23;;;;;;;2.79;100.00;97161.78;3876830;75;393971;-78
2020/12/06 22:47:22;;;;;;;5.27;3.37;;;;;;;2.75;100.00;97175.18;3878739;75;396058;-78
2020/12/06 22:52:28;;;;;;;1.47;1.37;;;;;;;2.81;100.00;97192.03;3888335;75;396034;-78
2020/12/06 22:57:33;;;;;;;14.33;2.53;;;;;;;2.77;100.00;97176.92;3873108;75;396080;-78
2020/12/06 23:02:38;;;;;;;3.03;2.10;;;;;;;2.79;100.00;97190.85;3882756;75;395023;-78
2020/12/06 23:07:44;;;;;;;10.53;2.47;;;;;;;2.75;100.00;97191.47;3882462;75;396326;-78
2020/12/06 23:12:49;;;;;;;3.30;2.57;;;;;;;2.73;100.00;97181.58;3882430;75;385838;-78
2020/12/06 23:17:54;;;;;;;1.73;1.63;;;;;;;2.73;100.00;97182.37;3882444;75;393950;-78
2020/12/06 23:22:59;;;;;;;2.50;0.90;;;;;;;2.72;100.00;97181.38;3882525;75;394080;-77
2020/12/06 23:28:04;;;;;;;1.03;0.93;;;;;;;2.64;100.00;97164.94;3883365;75;383538;-77
2020/12/06 23:33:09;;;;;;;1.83;1.40;;;;;;;2.69;100.00;97185.66;3882255;75;394003;-77
2020/12/06 23:38:14;;;;;;;1.27;1.17;;;;;;;2.59;100.00;97197.33;3893475;74;392091;-77